Time;durP1;ratioP1;P1;durP2;ratioP2;P2;SDS_P1;SDS_P2;PMS_P1;PMS_P2;Temp;Humidity;BMP_temperature;BMP_pressure;BME280_temperature;BME280_humidity;BME280_pressure;Samples;Min_cycle;Max_cycle;Signal;HPM_P1;HPM_P2
2022/01/02 00:00:49;;;;;;;2.40;1.27;;;;;;;7.33;37.60;93376.84;4944238;29;20066;-93
2022/01/02 00:15:21;;;;;;;;;;;;;;;;;;;;;
2022/01/02 00:23:07;;;;;;;;;;;;;;;;;;;;;
2022/01/02 00:29:38;;;;;;;2.33;1.30;;;;;;;6.97;38.98;93343.38;5001486;28;20052;-93
2022/01/02 00:33:12;;;;;;;;;;;;;;;;;;;;;
2022/01/02 00:43:25;;;;;;;;;;;;;;;;;;;;;
2022/01/02 00:54:32;;;;;;;;;;;;;;;;;;;;;
2022/01/02 01:01:45;;;;;;;2.33;1.20;;;;;;;6.96;38.25;93351.41;5023714;28;20063;-92
2022/01/02 01:05:29;;;;;;;;;;;;;;;;;;;;;
2022/01/02 01:09:03;;;;;;;;;;;;;;;;;;;;;
2022/01/02 01:12:51;;;;;;;;;;;;;;;;;;;;;
2022/01/02 01:27:40;;;;;;;2.92;1.38;;;;;;;6.88;38.12;93358.63;4926454;29;20494;-92
2022/01/02 01:30:50;;;;;;;;;;;;;;;;;;;;;
2022/01/02 01:41:09;;;;;;;;;;;;;;;;;;;;;
2022/01/02 01:44:51;;;;;;;;;;;;;;;;;;;;;
2022/01/02 01:48:07;;;;;;;2.97;1.30;;;;;;;6.91;38.86;93408.63;5002923;28;20132;-93
2022/01/02 01:56:23;;;;;;;;;;;;;;;;;;;;;
2022/01/02 02:03:06;;;;;;;;;;;;;;;;;;;;;
2022/01/02 02:06:58;;;;;;;;;;;;;;;;;;;;;
2022/01/02 02:14:06;;;;;;;;;;;;;;;;;;;;;
2022/01/02 02:21:11;;;;;;;;;;;;;;;;;;;;;
2022/01/02 02:24:53;;;;;;;;;;;;;;;;;;;;;
2022/01/02 02:32:01;;;;;;;;;;;;;;;;;;;;;
2022/01/02 02:35:20;;;;;;;;;;;;;;;;;;;;;
2022/01/02 02:42:10;;;;;;;;;;;;;;;;;;;;;
2022/01/02 02:49:48;;;;;;;2.13;1.30;;;;;;;6.32;40.82;93363.06;4946893;28;20043;-92
2022/01/02 02:56:53;;;;;;;;;;;;;;;;;;;;;
2022/01/02 03:00:24;;;;;;;2.03;1.05;;;;;;;6.38;40.39;93387.34;5004369;28;20051;-92
2022/01/02 03:04:11;;;;;;;1.95;1.20;;;;;;;6.11;40.54;93343.00;5000191;28;20038;-93
2022/01/02 03:07:55;;;;;;;;;;;;;;;;;;;;;
2022/01/02 03:10:54;;;;;;;1.83;1.10;;;;;;;6.38;40.79;93393.31;5009362;28;20077;-92
2022/01/02 03:25:18;;;;;;;;;;;;;;;;;;;;;
2022/01/02 03:35:38;;;;;;;;;;;;;;;;;;;;;
2022/01/02 03:47:15;;;;;;;;;;;;;;;;;;;;;
2022/01/02 03:53:40;;;;;;;2.47;1.10;;;;;;;5.61;41.33;93306.34;5012723;28;20045;-91
2022/01/02 03:56:56;;;;;;;;;;;;;;;;;;;;;
2022/01/02 03:59:41;;;;;;;3.05;1.45;;;;;;;5.66;41.51;93316.03;4993933;28;20049;-93
2022/01/02 04:02:51;;;;;;;1.67;1.10;;;;;;;5.62;41.71;93328.69;4981752;28;20044;-91
2022/01/02 04:09:51;;;;;;;;;;;;;;;;;;;;;
2022/01/02 04:13:36;;;;;;;1.83;1.00;;;;;;;5.54;41.50;93323.88;5018080;28;20115;-92
2022/01/02 04:20:20;;;;;;;1.00;0.77;;;;;;;5.73;41.70;93353.03;4939030;28;20055;-93
2022/01/02 04:31:35;;;;;;;10.07;1.70;;;;;;;5.48;41.57;93317.03;5028924;28;20041;-92
2022/01/02 04:35:09;;;;;;;;;;;;;;;;;;;;;
2022/01/02 04:45:20;;;;;;;;;;;;;;;;;;;;;
2022/01/02 04:48:55;;;;;;;2.22;1.10;;;;;;;5.84;42.62;93369.56;5019161;28;20049;-93
2022/01/02 04:52:30;;;;;;;5.28;1.10;;;;;;;5.40;42.58;93294.84;4991302;28;20709;-93
2022/01/02 04:56:03;;;;;;;;;;;;;;;;;;;;;
2022/01/02 04:59:40;;;;;;;;;;;;;;;;;;;;;
2022/01/02 05:07:11;;;;;;;3.80;1.58;;;;;;;5.46;42.97;93293.09;5002041;28;20037;-92
2022/01/02 05:18:24;;;;;;;;;;;;;;;;;;;;;
2022/01/02 05:25:01;;;;;;;3.30;1.60;;;;;;;5.75;42.81;93311.22;4930619;29;20106;-92
2022/01/02 05:29:20;;;;;;;;;;;;;;;;;;;;;
2022/01/02 05:32:31;;;;;;;;;;;;;;;;;;;;;
2022/01/02 05:36:10;;;;;;;3.92;1.90;;;;;;;6.11;42.67;93361.19;4933628;28;20039;-92
2022/01/02 05:42:58;;;;;;;4.35;1.73;;;;;;;5.68;42.33;93292.41;4910700;29;20079;-92
2022/01/02 05:46:41;;;;;;;3.92;1.98;;;;;;;5.62;42.66;93291.53;4933175;29;20087;-92
2022/01/02 05:53:51;;;;;;;;;;;;;;;;;;;;;
2022/01/02 05:57:29;;;;;;;;;;;;;;;;;;;;;
2022/01/02 06:00:33;;;;;;;;;;;;;;;;;;;;;
2022/01/02 06:03:38;;;;;;;;;;;;;;;;;;;;;
2022/01/02 06:10:41;;;;;;;;;;;;;;;;;;;;;
2022/01/02 06:13:56;;;;;;;1.70;1.02;;;;;;;5.45;43.07;93291.53;5003754;28;20034;-92
2022/01/02 06:21:02;;;;;;;;;;;;;;;;;;;;;
2022/01/02 06:28:31;;;;;;;;;;;;;;;;;;;;;
2022/01/02 06:31:46;;;;;;;;;;;;;;;;;;;;;
2022/01/02 06:35:12;;;;;;;4.18;1.75;;;;;;;5.50;43.51;93296.81;5023986;28;20044;-93
2022/01/02 06:38:25;;;;;;;;;;;;;;;;;;;;;
2022/01/02 06:41:17;;;;;;;;;;;;;;;;;;;;;
2022/01/02 06:44:31;;;;;;;3.28;1.70;;;;;;;5.38;43.63;93288.28;5012393;28;20100;-92
2022/01/02 06:47:48;;;;;;;3.15;1.48;;;;;;;5.34;43.93;93282.00;4986881;28;20042;-92
2022/01/02 06:51:01;;;;;;;2.92;1.50;;;;;;;5.45;44.05;93301.91;5005635;28;20043;-91
2022/01/02 06:53:48;;;;;;;2.45;1.40;;;;;;;5.50;44.28;93327.97;5010464;28;20187;-90
2022/01/02 07:04:16;;;;;;;3.75;1.50;;;;;;;5.27;43.98;93294.31;5018268;28;20052;-90
2022/01/02 07:07:33;;;;;;;2.38;1.30;;;;;;;5.24;43.69;93289.59;5002654;28;20037;-89
2022/01/02 07:14:27;;;;;;;2.60;1.30;;;;;;;5.37;43.21;93300.47;4984227;28;19913;-90
2022/01/02 07:17:40;;;;;;;2.33;1.20;;;;;;;5.78;43.39;93362.72;4963616;28;20406;-89
2022/01/02 07:28:21;;;;;;;;;;;;;;;;;;;;;
2022/01/02 07:31:38;;;;;;;;;;;;;;;;;;;;;
2022/01/02 07:38:24;;;;;;;;;;;;;;;;;;;;;
2022/01/02 07:41:16;;;;;;;3.75;1.70;;;;;;;14.94;27.23;93274.59;5020639;28;20036;-91
2022/01/02 07:47:56;;;;;;;3.40;1.58;;;;;;;18.17;23.50;93270.94;5016864;28;20283;-95
2022/01/02 07:55:43;;;;;;;2.42;1.30;;;;;;;21.03;20.16;93294.19;4946883;28;22003;-94
2022/01/02 07:58:58;;;;;;;;;;;;;;;;;;;;;
2022/01/02 08:05:35;;;;;;;3.10;1.70;;;;;;;23.82;15.32;93278.78;4990555;28;19919;-93
2022/01/02 08:09:07;;;;;;;;;;;;;;;;;;;;;
2022/01/02 08:16:33;;;;;;;;;;;;;;;;;;;;;
2022/01/02 08:23:46;;;;;;;;;;;;;;;;;;;;;
2022/01/02 08:30:56;;;;;;;3.28;1.70;;;;;;;23.19;18.05;93263.63;5008339;28;20510;-92
2022/01/02 08:37:32;;;;;;;4.60;2.00;;;;;;;22.16;20.11;93287.28;4997439;28;20384;-93
2022/01/02 08:40:48;;;;;;;3.00;1.58;;;;;;;21.55;20.58;93279.47;5013349;28;20041;-94
2022/01/02 08:44:23;;;;;;;;;;;;;;;;;;;;;
2022/01/02 08:47:11;;;;;;;3.97;1.63;;;;;;;22.75;19.89;93296.50;4956408;28;20050;-92
2022/01/02 08:50:25;;;;;;;;;;;;;;;;;;;;;
2022/01/02 08:53:29;;;;;;;;;;;;;;;;;;;;;
2022/01/02 08:56:42;;;;;;;3.30;1.65;;;;;;;24.01;18.47;93276.16;4979665;28;20034;-91
2022/01/02 09:00:18;;;;;;;;;;;;;;;;;;;;;
2022/01/02 09:03:09;;;;;;;;;;;;;;;21.90;18.56;93303.69;4994970;28;20037;-92
2022/01/02 09:09:42;;;;;;;5.53;1.90;;;;;;;19.00;21.33;93252.00;4995599;28;20065;-92
2022/01/02 09:13:05;;;;;;;6.15;1.70;;;;;;;18.28;22.63;93311.94;4994543;28;20041;-92
2022/01/02 09:16:24;;;;;;;3.30;1.40;;;;;;;16.89;23.93;93272.81;5015314;28;20041;-92
2022/01/02 09:19:25;;;;;;;;;;;;;;;;;;;;;
2022/01/02 09:22:48;;;;;;;;;;;;;;;;;;;;;
2022/01/02 09:26:14;;;;;;;;;;;;;;;;;;;;;
2022/01/02 09:29:34;;;;;;;2.15;1.20;;;;;;;15.67;24.43;93269.41;5024396;28;20505;-91
2022/01/02 09:36:34;;;;;;;;;;;;;;;;;;;;;
2022/01/02 09:40:06;;;;;;;2.78;1.42;;;;;;;15.44;24.57;93294.16;5023166;28;20041;-93
2022/01/02 09:47:12;;;;;;;;;;;;;;;;;;;;;
2022/01/02 09:50:18;;;;;;;;;;;;;;;;;;;;;
2022/01/02 09:53:40;;;;;;;3.20;1.65;;;;;;;14.43;26.71;93256.28;5030967;28;20377;-92
2022/01/02 10:00:10;;;;;;;;;;;;;;;;;;;;;
2022/01/02 10:06:50;;;;;;;;;;;;;;;;;;;;;
2022/01/02 10:13:41;;;;;;;3.60;1.67;;;;;;;14.04;30.58;93252.19;5003067;28;20068;-89
2022/01/02 10:16:47;;;;;;;3.55;1.80;;;;;;;13.77;32.17;93237.09;4991289;28;20030;-91
2022/01/02 10:19:56;;;;;;;3.67;1.60;;;;;;;14.07;32.61;93283.19;4991793;28;20046;-90
2022/01/02 10:23:02;;;;;;;;;;;;;;;;;;;;;
2022/01/02 10:26:15;;;;;;;5.50;1.70;;;;;;;14.22;30.31;93261.91;4982989;28;20034;-91
2022/01/02 10:35:23;;;;;;;4.20;1.90;;;;;;;14.31;31.51;93247.00;5044299;28;20042;-76
2022/01/02 10:37:51;;;;;;;3.50;1.73;;;;;;;14.29;30.61;93249.13;5032380;28;20056;-76
2022/01/02 10:40:43;;;;;;;3.10;1.70;;;;;;;14.09;29.24;93249.47;5032141;28;20026;-76
2022/01/02 10:43:33;;;;;;;3.88;1.70;;;;;;;13.91;28.67;93243.19;5015175;28;20099;-76
2022/01/02 10:46:03;;;;;;;93.43;36.92;;;;;;;14.10;28.12;93248.41;5032340;28;20033;-77
2022/01/02 10:48:33;;;;;;;69.28;26.38;;;;;;;14.38;28.67;93244.75;5032139;28;20045;-76
2022/01/02 10:51:04;;;;;;;5.25;2.50;;;;;;;14.77;28.17;93238.28;5033161;28;20034;-77
2022/01/02 10:53:33;;;;;;;11.00;4.47;;;;;;;15.12;27.55;93243.91;5033173;28;20033;-77
2022/01/02 10:55:59;;;;;;;9.10;3.75;;;;;;;15.67;27.88;93236.94;5031485;28;20042;-77
2022/01/02 10:58:26;;;;;;;5.18;2.42;;;;;;;16.11;27.08;93245.97;5015926;28;20095;-77
2022/01/02 11:00:52;;;;;;;4.78;1.85;;;;;;;16.23;26.73;93246.19;5048598;28;20042;-77
2022/01/02 11:03:24;;;;;;;3.85;1.80;;;;;;;15.65;28.70;93249.66;5032147;28;20034;-76
2022/01/02 11:05:56;;;;;;;7.05;1.75;;;;;;;15.15;28.94;93250.44;5032157;28;20033;-76
2022/01/02 11:08:23;;;;;;;5.05;1.90;;;;;;;15.03;28.80;93245.69;5033095;28;20040;-77
2022/01/02 11:10:49;;;;;;;4.30;2.00;;;;;;;14.72;28.44;93246.28;5048228;28;20034;-77
2022/01/02 11:13:17;;;;;;;5.50;1.90;;;;;;;14.69;29.34;93260.03;5033170;28;20040;-76
2022/01/02 11:15:42;;;;;;;4.45;2.08;;;;;;;14.53;28.75;93253.47;5048393;28;20035;-76
2022/01/02 11:18:08;;;;;;;4.32;2.42;;;;;;;14.10;31.31;93246.56;5033191;28;20037;-77
2022/01/02 11:20:34;;;;;;;6.50;3.25;;;;;;;13.90;31.39;93247.66;5031522;28;20037;-76
2022/01/02 11:23:20;;;;;;;4.00;1.88;;;;;;;13.45;31.95;93238.63;5032936;28;20029;-77
2022/01/02 11:26:04;;;;;;;6.20;3.38;;;;;;;13.62;33.17;93236.28;5032977;28;20094;-77
2022/01/02 11:28:38;;;;;;;5.80;3.00;;;;;;;14.00;33.83;93230.16;5048198;28;20077;-77
2022/01/02 11:31:06;;;;;;;6.75;3.63;;;;;;;14.00;32.38;93224.88;5032734;28;20037;-77
2022/01/02 11:33:35;;;;;;;6.38;3.95;;;;;;;13.84;31.60;93209.34;5031519;28;20058;-76
2022/01/02 11:36:24;;;;;;;5.88;3.40;;;;;;;13.60;31.40;93198.16;5033091;28;20037;-77
2022/01/02 11:39:01;;;;;;;5.50;2.88;;;;;;;13.20;32.69;93202.94;5033072;28;20504;-76
2022/01/02 11:41:41;;;;;;;5.68;2.60;;;;;;;13.18;33.47;93194.53;5032757;28;20167;-76
2022/01/02 11:44:11;;;;;;;8.65;5.75;;;;;;;12.96;34.13;93185.34;5032706;28;20487;-76
2022/01/02 11:46:50;;;;;;;41.53;17.98;;;;;;;12.79;33.73;93179.78;5032521;28;20124;-76
2022/01/02 11:49:18;;;;;;;6.47;3.03;;;;;;;12.89;34.57;93177.06;5032709;28;20402;-76
2022/01/02 11:51:46;;;;;;;7.55;2.45;;;;;;;12.52;35.31;93168.06;5032428;28;20033;-76
2022/01/02 11:54:27;;;;;;;5.78;2.60;;;;;;;12.36;34.28;93169.28;5031791;28;20043;-76
2022/01/02 11:56:54;;;;;;;4.75;2.63;;;;;;;12.22;34.58;93163.91;5047901;28;20048;-76
2022/01/02 11:59:38;;;;;;;8.63;3.63;;;;;;;12.21;34.67;93160.53;5031299;28;20038;-76
2022/01/02 12:02:27;;;;;;;6.30;3.28;;;;;;;12.22;33.98;93164.69;5047721;28;20044;-77
2022/01/02 12:05:14;;;;;;;5.75;2.53;;;;;;;12.18;34.36;93157.66;5028317;28;20049;-77
2022/01/02 12:07:50;;;;;;;4.53;2.22;;;;;;;12.39;34.50;93147.72;5047574;28;20406;-76
2022/01/02 12:10:15;;;;;;;3.72;2.17;;;;;;;12.67;33.15;93141.59;5031926;28;20380;-76
2022/01/02 12:12:56;;;;;;;5.88;2.60;;;;;;;12.67;34.07;93133.72;5047640;28;20087;-76
2022/01/02 12:15:31;;;;;;;5.97;2.60;;;;;;;12.71;33.60;93129.44;5031938;28;20577;-77
2022/01/02 12:18:16;;;;;;;4.40;2.13;;;;;;;12.71;33.45;93111.06;5031751;28;20044;-77
2022/01/02 12:23:42;;;;;;;6.20;2.33;;;;;;;13.75;32.00;93117.13;5030674;28;20136;-76
2022/01/02 12:26:21;;;;;;;3.80;2.00;;;;;;;13.84;31.43;93111.97;5031921;28;20128;-76
2022/01/02 12:29:01;;;;;;;5.18;2.60;;;;;;;13.39;32.36;93103.78;5030413;28;20083;-76
2022/01/02 12:31:43;;;;;;;4.85;1.90;;;;;;;12.45;32.16;93108.00;5031761;28;20436;-76
2022/01/02 12:34:12;;;;;;;;;;;;;;;12.47;32.93;93119.00;5047430;28;20057;-76
2022/01/02 12:36:41;;;;;;;4.57;2.47;;;;;;;12.77;33.17;93111.03;5031810;28;20292;-76
2022/01/02 12:39:16;;;;;;;6.22;2.50;;;;;;;12.90;32.88;93087.44;5031579;28;20088;-76
2022/01/02 12:41:43;;;;;;;5.15;1.80;;;;;;;13.16;33.53;93094.94;5030401;28;20048;-76
2022/01/02 12:44:15;;;;;;;4.00;2.05;;;;;;;13.19;32.06;93096.19;5031464;28;20033;-76
2022/01/02 12:46:41;;;;;;;4.63;1.67;;;;;;;12.97;32.81;93092.34;5031612;28;20041;-76
2022/01/02 12:49:21;;;;;;;5.50;2.55;;;;;;;12.68;34.49;93084.59;5031716;28;20579;-76
2022/01/02 12:51:52;;;;;;;4.30;2.00;;;;;;;12.37;34.07;93077.13;5014571;28;20041;-75
2022/01/02 12:54:21;;;;;;;6.03;3.00;;;;;;;12.35;34.65;93067.97;5029040;28;20091;-75
2022/01/02 12:56:52;;;;;;;7.40;4.93;;;;;;;12.38;35.09;93064.78;5029488;28;20034;-77
2022/01/02 12:59:40;;;;;;;5.18;2.40;;;;;;;12.21;35.77;93063.41;5032475;28;20057;-79
2022/01/02 13:02:08;;;;;;;5.18;2.55;;;;;;;12.36;35.70;93059.00;5032933;28;20418;-77
2022/01/02 13:04:38;;;;;;;5.05;2.50;;;;;;;12.46;36.97;93054.41;5029712;28;20471;-77
2022/01/02 13:07:08;;;;;;;4.28;2.30;;;;;;;12.51;35.91;93056.19;5029705;28;20041;-76
2022/01/02 13:09:40;;;;;;;4.95;2.10;;;;;;;12.50;34.53;93055.41;5030197;28;20029;-76
2022/01/02 13:12:13;;;;;;;6.07;2.10;;;;;;;12.50;34.69;93052.03;5030467;28;20041;-76
2022/01/02 13:14:44;;;;;;;5.05;2.20;;;;;;;12.53;35.99;93050.66;5022526;28;20041;-77
2022/01/02 13:17:21;;;;;;;7.43;2.65;;;;;;;12.01;36.58;93058.41;5030761;28;20364;-77
2022/01/02 13:19:58;;;;;;;9.23;4.78;;;;;;;12.08;36.16;93056.22;5024272;28;20027;-76
2022/01/02 13:22:26;;;;;;;7.82;3.42;;;;;;;12.06;36.75;93058.34;5029830;28;20033;-77
2022/01/02 13:24:53;;;;;;;6.85;2.60;;;;;;;12.05;36.64;93054.16;5031878;28;20353;-77
2022/01/02 13:27:21;;;;;;;5.50;2.53;;;;;;;11.69;36.09;93051.91;5031281;28;20041;-76
2022/01/02 13:30:02;;;;;;;8.07;2.55;;;;;;;11.39;35.57;93061.66;5046610;28;20053;-77
2022/01/02 13:32:36;;;;;;;4.88;2.65;;;;;;;11.21;35.30;93054.44;5029839;28;20040;-76
2022/01/02 13:35:09;;;;;;;5.13;2.40;;;;;;;11.31;35.99;93050.97;5029110;28;20046;-77
2022/01/02 13:37:42;;;;;;;4.70;2.25;;;;;;;11.29;36.57;93053.88;5030756;28;20064;-78
2022/01/02 13:40:21;;;;;;;4.57;2.00;;;;;;;11.21;36.38;93051.81;5031193;28;20026;-76
2022/01/02 13:42:50;;;;;;;5.65;2.92;;;;;;;11.22;37.69;93053.41;5030682;28;20037;-76
2022/01/02 13:45:30;;;;;;;6.10;3.10;;;;;;;11.03;38.35;93046.22;5031306;28;20026;-77
2022/01/02 13:48:06;;;;;;;8.15;4.68;;;;;;;10.96;38.85;93056.22;5029794;28;20080;-78
2022/01/02 13:50:40;;;;;;;8.02;3.53;;;;;;;10.96;38.82;93053.59;5036711;28;20033;-79
2022/01/02 13:53:23;;;;;;;8.65;4.05;;;;;;;10.82;38.43;93060.53;5036240;28;20052;-79
2022/01/02 13:56:11;;;;;;;36.15;25.30;;;;;;;10.86;38.54;93069.41;5035573;28;20079;-79
2022/01/02 13:58:44;;;;;;;11.48;5.05;;;;;;;11.07;37.53;93061.41;5044115;28;20037;-79
2022/01/02 14:01:22;;;;;;;29.20;18.73;;;;;;;10.92;38.42;93070.94;5034775;28;20033;-79
2022/01/02 14:04:07;;;;;;;15.55;9.88;;;;;;;10.83;38.19;93072.59;5050449;28;20034;-79
2022/01/02 14:06:39;;;;;;;6.13;3.30;;;;;;;10.94;37.41;93068.84;5031483;28;20033;-79
2022/01/02 14:09:10;;;;;;;10.40;4.03;;;;;;;11.13;38.51;93068.94;5034302;28;20041;-79
2022/01/02 14:11:37;;;;;;;49.80;21.55;;;;;;;11.57;38.45;93075.09;5036339;28;20049;-79
2022/01/02 14:14:36;;;;;;;17.50;8.23;;;;;;;11.72;38.97;93071.56;5037988;28;20037;-78
2022/01/02 14:19:42;;;;;;;15.95;8.85;;;;;;;11.71;38.65;93065.53;5038530;28;20092;-76
2022/01/02 14:22:10;;;;;;;8.52;4.28;;;;;;;11.06;40.00;93065.84;5036082;28;20037;-78
2022/01/02 14:24:36;;;;;;;11.98;4.05;;;;;;;10.64;41.76;93064.56;5040687;28;20040;-78
2022/01/02 14:27:22;;;;;;;15.10;4.10;;;;;;;10.65;41.14;93068.78;5022836;28;20124;-79
2022/01/02 14:29:47;;;;;;;8.40;4.10;;;;;;;10.26;42.62;93068.69;5043479;28;20034;-81
2022/01/02 14:32:14;;;;;;;11.10;3.72;;;;;;;10.59;40.13;93068.00;5038502;28;20030;-78
2022/01/02 14:34:42;;;;;;;8.48;3.70;;;;;;;10.52;40.30;93078.00;5036826;28;20144;-78
2022/01/02 14:37:09;;;;;;;7.82;3.88;;;;;;;10.33;39.96;93069.97;5031199;28;20057;-78
2022/01/02 14:39:54;;;;;;;6.93;3.85;;;;;;;10.18;42.30;93065.59;5020547;28;20056;-77
2022/01/02 14:42:20;;;;;;;7.03;3.70;;;;;;;10.05;41.81;93073.25;5016749;28;20040;-77
2022/01/02 14:45:06;;;;;;;8.30;3.50;;;;;;;10.06;41.97;93072.94;5033367;28;20506;-77
2022/01/02 14:47:33;;;;;;;6.70;3.38;;;;;;;10.01;43.14;93062.50;5032914;28;20495;-77
2022/01/02 14:50:03;;;;;;;7.90;3.35;;;;;;;9.95;42.52;93053.91;5035612;28;20025;-78
2022/01/02 14:56:05;;;;;;;10.63;3.53;;;;;;;9.84;42.94;93062.06;5035651;28;20542;-77
2022/01/02 14:58:30;;;;;;;8.90;3.75;;;;;;;9.74;44.03;93063.66;5035744;28;20064;-78
2022/01/02 15:00:57;;;;;;;11.18;3.72;;;;;;;9.68;44.17;93067.34;5017708;28;20533;-77
2022/01/02 15:03:23;;;;;;;11.20;4.57;;;;;;;9.61;44.69;93066.81;5033917;28;20063;-76
2022/01/02 15:05:50;;;;;;;16.98;5.75;;;;;;;9.51;44.71;93067.63;5017745;28;20036;-78
2022/01/02 15:08:15;;;;;;;11.25;5.00;;;;;;;9.42;46.04;93074.44;5033912;28;20049;-77
2022/01/02 15:10:41;;;;;;;17.27;6.47;;;;;;;9.29;46.39;93078.38;5035090;28;20037;-77
2022/01/02 15:13:08;;;;;;;10.32;4.60;;;;;;;9.21;46.38;93076.31;5034959;28;20042;-76
2022/01/02 15:15:34;;;;;;;9.90;3.47;;;;;;;9.06;45.59;93063.25;5031443;28;20414;-77
2022/01/02 15:18:00;;;;;;;6.20;3.22;;;;;;;9.09;45.22;93073.16;5032383;28;20407;-76
2022/01/02 15:20:25;;;;;;;7.47;3.80;;;;;;;8.99;44.52;93067.97;5032199;28;20017;-77
2022/01/02 15:22:52;;;;;;;6.22;3.50;;;;;;;8.94;45.89;93076.59;5019845;28;20041;-77
2022/01/02 15:25:19;;;;;;;6.38;3.33;;;;;;;8.87;46.43;93068.19;5042668;28;20041;-78
2022/01/02 15:27:45;;;;;;;6.10;3.10;;;;;;;8.74;47.07;93061.69;5033026;28;20048;-78
2022/01/02 15:30:11;;;;;;;4.72;2.75;;;;;;;8.66;48.96;93060.34;5030929;28;20033;-76
2022/01/02 15:32:37;;;;;;;7.63;3.15;;;;;;;8.53;48.93;93053.84;5039488;28;20037;-78
2022/01/02 15:35:09;;;;;;;6.40;3.30;;;;;;;8.44;48.30;93067.63;5016559;28;20071;-78
2022/01/02 15:37:36;;;;;;;6.30;3.33;;;;;;;8.37;47.94;93059.25;5034702;28;20403;-77
2022/01/02 15:40:04;;;;;;;7.97;3.90;;;;;;;8.27;47.15;93060.03;5037732;28;20052;-77
2022/01/02 15:42:30;;;;;;;10.27;3.80;;;;;;;8.26;47.68;93076.69;5049649;28;20025;-80
2022/01/02 15:44:55;;;;;;;8.98;4.15;;;;;;;8.20;48.09;93062.88;5032119;28;20406;-79
2022/01/02 15:47:21;;;;;;;8.40;4.53;;;;;;;8.14;48.38;93063.88;5035018;28;20042;-79
2022/01/02 15:49:46;;;;;;;9.52;3.67;;;;;;;8.05;48.35;93066.19;5019345;28;20121;-79
2022/01/02 15:52:13;;;;;;;10.55;4.30;;;;;;;7.98;48.20;93060.44;5033104;28;20025;-77
2022/01/02 15:54:39;;;;;;;5.50;2.58;;;;;;;7.96;47.29;93065.13;5030821;28;20151;-80
2022/01/02 15:57:05;;;;;;;6.70;2.60;;;;;;;7.90;47.31;93068.75;5031409;28;20041;-78
2022/01/02 15:59:31;;;;;;;8.30;3.45;;;;;;;7.78;48.05;93074.19;5030983;28;20072;-77
2022/01/02 16:01:58;;;;;;;5.57;2.80;;;;;;;7.71;48.03;93071.81;5035002;28;20034;-78
2022/01/02 16:04:24;;;;;;;10.23;4.35;;;;;;;7.67;48.12;93075.16;5034252;28;20499;-77
2022/01/02 16:06:50;;;;;;;8.80;3.10;;;;;;;7.63;47.77;93082.72;5031232;28;20465;-77
2022/01/02 16:09:16;;;;;;;7.78;2.80;;;;;;;7.57;47.60;93086.31;5016533;28;20131;-78
2022/01/02 16:11:42;;;;;;;7.40;3.75;;;;;;;7.49;47.89;93087.56;5001640;28;20451;-80
2022/01/02 16:14:08;;;;;;;7.95;4.28;;;;;;;7.47;48.33;93094.06;5031914;28;20076;-78
2022/01/02 16:16:35;;;;;;;12.05;5.38;;;;;;;7.41;49.32;93100.31;5032350;28;20047;-78
2022/01/02 16:19:02;;;;;;;10.75;4.78;;;;;;;7.37;50.06;93104.44;5032980;28;20137;-78
2022/01/02 16:21:28;;;;;;;11.02;4.20;;;;;;;7.32;50.20;93099.19;5034328;28;20495;-78
2022/01/02 16:23:57;;;;;;;9.18;3.80;;;;;;;7.29;50.15;93101.28;5051424;28;20072;-77
2022/01/02 16:26:24;;;;;;;10.50;3.40;;;;;;;7.19;50.50;93106.41;5033816;28;20124;-77
2022/01/02 16:28:50;;;;;;;8.10;3.15;;;;;;;7.11;49.50;93099.03;5034683;28;20159;-79
2022/01/02 16:31:16;;;;;;;10.98;4.00;;;;;;;7.07;49.77;93109.19;5030222;28;20067;-79
2022/01/02 16:33:43;;;;;;;7.35;3.30;;;;;;;6.98;50.03;93095.06;5037315;28;20076;-78
2022/01/02 16:36:09;;;;;;;6.10;3.08;;;;;;;6.98;49.23;93099.47;5031561;28;20034;-78
2022/01/02 16:38:35;;;;;;;5.03;2.38;;;;;;;6.94;48.40;93088.00;5033180;28;20116;-78
2022/01/02 16:41:01;;;;;;;5.57;2.58;;;;;;;6.93;47.91;93094.22;5033145;28;20037;-78
2022/01/02 16:43:27;;;;;;;8.25;2.50;;;;;;;6.88;48.10;93098.34;5012609;28;20046;-78
2022/01/02 16:45:53;;;;;;;5.85;2.53;;;;;;;6.85;48.48;93085.84;5034314;28;20040;-77
2022/01/02 16:48:19;;;;;;;7.10;2.90;;;;;;;6.82;49.17;93075.94;5031543;28;20033;-78
2022/01/02 16:50:45;;;;;;;7.95;2.80;;;;;;;6.81;48.68;93073.56;5046756;28;20112;-78
2022/01/02 16:53:12;;;;;;;5.53;2.63;;;;;;;6.81;48.67;93069.16;5031574;28;20102;-79
2022/01/02 16:55:37;;;;;;;5.70;3.28;;;;;;;6.76;49.19;93066.50;5032939;28;20472;-79
2022/01/02 16:58:04;;;;;;;7.78;3.42;;;;;;;6.74;49.23;93075.59;5035221;28;20048;-78
2022/01/02 17:00:31;;;;;;;6.68;3.33;;;;;;;6.69;49.30;93086.75;5013647;28;20028;-78
2022/01/02 17:02:58;;;;;;;6.85;3.22;;;;;;;6.68;49.69;93090.38;5028094;28;20068;-78
2022/01/02 17:05:25;;;;;;;8.30;2.85;;;;;;;6.66;49.77;93088.03;5028879;28;20120;-77
2022/01/02 17:07:51;;;;;;;7.38;2.50;;;;;;;6.63;50.13;93095.53;5028509;28;20037;-77
2022/01/02 17:10:17;;;;;;;6.50;2.35;;;;;;;6.57;50.78;93086.09;5028515;28;20038;-77
2022/01/02 17:12:43;;;;;;;7.63;3.10;;;;;;;6.49;50.36;93081.38;5029459;28;20095;-78
2022/01/02 17:15:10;;;;;;;7.30;3.72;;;;;;;6.49;49.49;93086.56;5011689;28;20038;-78
2022/01/02 17:17:37;;;;;;;5.55;2.70;;;;;;;6.45;50.03;93079.22;5029951;28;20037;-77
2022/01/02 17:20:08;;;;;;;7.13;3.97;;;;;;;6.46;49.78;93078.22;5030184;28;20033;-77
2022/01/02 17:22:34;;;;;;;13.60;3.97;;;;;;;6.40;50.46;93081.78;5028798;28;20120;-78
2022/01/02 17:25:00;;;;;;;9.95;3.60;;;;;;;6.36;50.84;93078.09;5028812;28;20896;-77
2022/01/02 17:27:30;;;;;;;7.80;3.78;;;;;;;6.27;50.83;93081.41;5030252;28;20034;-77
2022/01/02 17:29:56;;;;;;;9.45;3.67;;;;;;;6.22;50.72;93084.72;5029299;28;20135;-77
2022/01/02 17:32:21;;;;;;;8.73;3.30;;;;;;;6.16;50.21;93083.09;5031184;28;20048;-77
2022/01/02 17:34:48;;;;;;;6.70;3.25;;;;;;;6.14;50.43;93090.34;5029129;28;20132;-77
2022/01/02 17:37:14;;;;;;;6.32;2.85;;;;;;;6.12;49.93;93092.41;5011914;28;20037;-78
2022/01/02 17:39:39;;;;;;;7.05;3.33;;;;;;;6.05;50.22;93082.19;5029221;28;20038;-78
2022/01/02 17:42:05;;;;;;;5.53;2.90;;;;;;;6.00;49.85;93075.13;5046417;28;20041;-77
2022/01/02 17:44:33;;;;;;;5.78;2.65;;;;;;;5.98;49.69;93077.19;5031841;28;20033;-77
2022/01/02 17:46:59;;;;;;;6.43;2.60;;;;;;;5.95;50.10;93077.69;5034947;28;20040;-78
2022/01/02 17:49:26;;;;;;;9.73;2.47;;;;;;;5.93;50.33;93079.72;5046271;28;20025;-79
2022/01/02 17:51:52;;;;;;;7.22;2.75;;;;;;;5.85;50.24;93082.72;5037417;28;20261;-81
2022/01/02 17:54:18;;;;;;;8.77;3.58;;;;;;;5.81;50.76;93071.25;5034547;28;20507;-80
2022/01/02 17:56:44;;;;;;;8.80;3.60;;;;;;;5.76;50.72;93084.16;5037999;28;20059;-79
2022/01/02 17:59:10;;;;;;;6.93;2.83;;;;;;;5.64;50.31;93061.69;5036802;28;20033;-82
2022/01/02 18:01:36;;;;;;;5.30;2.40;;;;;;;5.69;50.41;93079.16;5037153;28;20037;-78
2022/01/02 18:04:03;;;;;;;5.03;2.35;;;;;;;5.69;50.20;93083.56;5035502;28;20524;-79
2022/01/02 18:06:29;;;;;;;4.57;2.38;;;;;;;5.68;50.37;93074.22;5037330;28;20030;-78
2022/01/02 18:09:00;;;;;;;5.38;2.72;;;;;;;5.66;50.62;93073.66;5034102;28;20041;-79
2022/01/02 18:11:28;;;;;;;4.63;2.20;;;;;;;5.60;50.69;93073.59;5000760;28;20068;-76
2022/01/02 18:13:54;;;;;;;9.07;4.78;;;;;;;5.55;50.79;93067.56;5033741;28;20061;-75
2022/01/02 18:16:20;;;;;;;7.95;4.00;;;;;;;5.49;50.60;93074.47;5033443;28;20068;-79
2022/01/02 18:18:45;;;;;;;7.55;2.58;;;;;;;5.45;50.71;93073.41;5035987;28;20498;-79
2022/01/02 18:21:13;;;;;;;5.25;2.63;;;;;;;5.42;50.49;93063.47;5037980;28;20041;-80
2022/01/02 18:23:43;;;;;;;3.75;2.10;;;;;;;5.41;50.08;93062.69;5036491;28;20083;-77
2022/01/02 18:26:12;;;;;;;4.93;2.60;;;;;;;5.45;49.92;93065.63;5036199;28;20037;-78
2022/01/02 18:28:42;;;;;;;3.80;1.85;;;;;;;5.40;50.12;93065.53;5050662;28;20041;-78
2022/01/02 18:31:08;;;;;;;10.68;2.50;;;;;;;5.36;50.31;93069.66;5036224;28;20040;-78
2022/01/02 18:33:34;;;;;;;6.80;3.33;;;;;;;5.30;50.41;93065.41;5016622;28;20046;-79
2022/01/02 18:36:00;;;;;;;6.72;2.83;;;;;;;5.29;50.54;93066.41;5036056;28;20500;-78
2022/01/02 18:38:26;;;;;;;9.95;3.25;;;;;;;5.24;50.63;93061.16;5032245;28;20042;-78
2022/01/02 18:40:52;;;;;;;7.35;2.83;;;;;;;5.26;50.46;93061.72;5028849;28;20099;-79
2022/01/02 18:43:21;;;;;;;4.53;2.00;;;;;;;5.19;50.73;93062.66;5031434;28;20030;-79
2022/01/02 18:45:47;;;;;;;5.05;1.85;;;;;;;5.20;51.20;93061.66;5049738;28;20037;-79
2022/01/02 18:48:13;;;;;;;4.28;2.10;;;;;;;5.21;51.51;93073.59;5035877;28;20033;-77
2022/01/02 18:50:39;;;;;;;5.32;2.20;;;;;;;5.21;51.18;93078.78;5033597;28;20045;-79
2022/01/02 18:53:04;;;;;;;4.85;2.40;;;;;;;5.18;51.18;93066.28;5035636;28;20513;-78
2022/01/02 18:55:30;;;;;;;3.85;1.85;;;;;;;5.27;51.15;93069.28;5036355;28;20037;-79
2022/01/02 18:57:56;;;;;;;4.22;1.85;;;;;;;5.16;51.17;93064.97;5035582;28;20069;-78
2022/01/02 19:00:22;;;;;;;4.90;2.00;;;;;;;5.12;51.03;93059.44;5037234;28;20034;-78
2022/01/02 19:02:48;;;;;;;4.78;2.00;;;;;;;5.11;51.11;93063.09;5052340;28;20554;-77
2022/01/02 19:05:14;;;;;;;3.55;1.80;;;;;;;5.11;51.21;93067.47;5017479;28;20065;-78